Airmont, New York
Current Conditions -  °F | °C
As of 4:06 PM on Tuesday 21 Oct 2014 (Local Time) from KTEB Reporting Station
Overcast Overcast  
Wind Chill: 18°   Ceiling: 2900
Heat Index: 18°   Visibility: 10mi
Dew Point: 12°   Wind: 6mph
Humidity: 68%   Direction: NA
Pressure: 29.83"   Gusts: NA
Location:  41.1112°N, 74.0777°W
Report Text: KTEB 212006Z VRB05KT 10SM BKN029 OVC050 18/12 A2983 RMK AO2
Loading
Personal Weather Stations






























Interactive Weather Map
Tropical Storm Tracking
New forecast layout! Learn more

10-Day Weather Forecast

Advertisements
Track Severe Weather on mobile